createdAt,value
2018-02-16T00:01:11.740Z,85.80
2018-02-16T00:03:39.836Z,85.80
2018-02-16T00:06:07.940Z,85.80
2018-02-16T00:08:36.131Z,85.80
2018-02-16T00:11:04.350Z,85.80
2018-02-16T00:13:32.475Z,85.70
2018-02-16T00:16:00.596Z,86.60
2018-02-16T00:18:29.184Z,85.70
2018-02-16T00:20:57.321Z,85.70
2018-02-16T00:23:25.572Z,85.70
2018-02-16T00:25:53.854Z,85.70
2018-02-16T00:28:22.091Z,85.70
2018-02-16T00:30:50.286Z,85.70
2018-02-16T00:33:18.423Z,85.70
2018-02-16T00:35:46.591Z,85.70
2018-02-16T00:38:15.522Z,85.70
2018-02-16T00:40:43.659Z,85.70
2018-02-16T00:43:11.781Z,85.80
2018-02-16T00:45:39.872Z,85.80
2018-02-16T00:48:08.009Z,85.80
2018-02-16T00:50:36.153Z,85.90
2018-02-16T00:53:04.269Z,85.90
2018-02-16T00:55:32.553Z,85.90
2018-02-16T00:58:00.655Z,85.90
2018-02-16T01:00:28.779Z,85.90
2018-02-16T01:02:56.869Z,86.00
2018-02-16T01:05:24.964Z,86.00
2018-02-16T01:07:53.123Z,86.00
2018-02-16T01:10:21.271Z,86.00
2018-02-16T01:12:49.459Z,86.10
2018-02-16T01:15:17.548Z,86.10
2018-02-16T01:17:45.720Z,86.10
2018-02-16T01:20:13.844Z,86.20
2018-02-16T01:22:41.958Z,86.10
2018-02-16T01:25:10.062Z,85.90
2018-02-16T01:27:38.998Z,85.90
2018-02-16T01:30:07.132Z,85.90
2018-02-16T01:32:35.232Z,85.90
2018-02-16T01:35:03.846Z,85.90
2018-02-16T01:37:31.947Z,85.80
2018-02-16T01:40:00.093Z,85.90
2018-02-16T01:42:28.212Z,85.90
2018-02-16T01:44:56.312Z,85.90
2018-02-16T01:47:24.416Z,85.90
2018-02-16T01:50:05.218Z,85.90
2018-02-16T01:52:33.358Z,86.00
2018-02-16T01:55:01.472Z,85.90
2018-02-16T01:57:29.578Z,86.00
2018-02-16T01:59:57.676Z,85.90
2018-02-16T02:02:25.811Z,85.90
2018-02-16T02:04:53.931Z,86.00
2018-02-16T02:07:22.021Z,86.20
2018-02-16T02:09:50.130Z,86.20
2018-02-16T02:12:18.257Z,86.20
2018-02-16T02:14:46.449Z,86.40
2018-02-16T02:17:14.607Z,86.40
2018-02-16T02:19:43.389Z,86.50
2018-02-16T02:22:11.491Z,86.40
2018-02-16T02:24:39.617Z,86.40
2018-02-16T02:27:07.775Z,86.50
2018-02-16T02:29:35.873Z,87.10
2018-02-16T02:32:04.004Z,87.70
2018-02-16T02:34:32.121Z,88.20
2018-02-16T02:37:00.232Z,88.60
2018-02-16T02:39:28.352Z,88.80
2018-02-16T02:41:56.538Z,88.80
2018-02-16T02:44:24.658Z,88.80
2018-02-16T02:46:52.766Z,88.80
2018-02-16T02:49:20.910Z,88.70
2018-02-16T02:51:49.172Z,88.70
2018-02-16T02:54:17.280Z,88.60
2018-02-16T02:56:45.426Z,88.60
2018-02-16T02:59:13.571Z,88.50
2018-02-16T03:01:42.454Z,88.30
2018-02-16T03:04:10.557Z,88.30
2018-02-16T03:06:39.457Z,88.30
2018-02-16T03:09:07.616Z,88.20
2018-02-16T03:11:35.768Z,88.30
2018-02-16T03:14:04.664Z,88.30
2018-02-16T03:16:32.764Z,88.30
2018-02-16T03:19:00.971Z,88.30
2018-02-16T03:21:29.085Z,88.30
2018-02-16T03:23:57.207Z,88.30
2018-02-16T03:26:25.309Z,88.10
2018-02-16T03:28:54.075Z,88.20
2018-02-16T03:31:22.173Z,88.30
2018-02-16T03:33:50.289Z,88.30
2018-02-16T03:36:21.107Z,88.40
2018-02-16T03:38:49.217Z,88.40
2018-02-16T03:41:17.319Z,88.40
2018-02-16T03:43:45.423Z,88.40
2018-02-16T03:46:13.559Z,88.40
2018-02-16T03:48:41.767Z,88.40
2018-02-16T03:51:09.954Z,88.40
2018-02-16T03:53:38.049Z,88.40
2018-02-16T03:56:06.487Z,88.40
2018-02-16T03:58:34.607Z,88.40
2018-02-16T04:01:11.551Z,88.40
2018-02-16T04:03:48.638Z,88.40
2018-02-16T04:06:23.748Z,88.40
2018-02-16T04:08:52.120Z,88.50
2018-02-16T04:11:20.272Z,88.40
2018-02-16T04:13:49.669Z,88.40
2018-02-16T04:16:17.902Z,88.40
2018-02-16T04:18:46.120Z,88.60
2018-02-16T04:21:14.376Z,88.50
2018-02-16T04:23:42.618Z,88.50
2018-02-16T04:26:10.774Z,88.50
2018-02-16T04:28:38.876Z,88.50
2018-02-16T04:31:07.258Z,88.50
2018-02-16T04:33:35.384Z,88.50
2018-02-16T04:36:03.562Z,88.40
2018-02-16T04:38:31.658Z,88.40
2018-02-16T04:41:00.540Z,88.40
2018-02-16T04:43:28.685Z,88.40
2018-02-16T04:45:56.790Z,88.40
2018-02-16T04:48:24.911Z,88.30
2018-02-16T04:50:53.020Z,88.30
2018-02-16T04:53:21.904Z,89.10
2018-02-16T04:55:50.015Z,88.30
2018-02-16T04:58:18.135Z,88.40
2018-02-16T05:00:46.255Z,88.40
2018-02-16T05:03:14.361Z,88.40
2018-02-16T05:05:42.497Z,88.40
2018-02-16T05:08:10.633Z,88.30
2018-02-16T05:10:38.741Z,88.20
2018-02-16T05:13:06.845Z,88.20
2018-02-16T05:15:34.967Z,88.20
2018-02-16T05:18:03.840Z,88.20
2018-02-16T05:20:31.937Z,88.20
2018-02-16T05:23:00.810Z,88.20
2018-02-16T05:25:29.800Z,88.20
2018-02-16T05:27:58.026Z,88.20
2018-02-16T05:30:26.238Z,88.20
2018-02-16T05:32:54.460Z,88.20
2018-02-16T05:35:22.565Z,88.10
2018-02-16T05:37:50.688Z,88.20
2018-02-16T05:40:19.590Z,88.20
2018-02-16T05:42:47.694Z,88.20
2018-02-16T05:45:15.812Z,88.20
2018-02-16T05:47:43.968Z,88.20
2018-02-16T05:50:12.105Z,88.20
2018-02-16T05:52:40.252Z,88.20
2018-02-16T05:55:08.386Z,88.10
2018-02-16T05:57:36.502Z,88.20
2018-02-16T06:00:05.386Z,88.40
2018-02-16T06:02:33.488Z,88.40
2018-02-16T06:05:01.609Z,88.30
2018-02-16T06:07:29.726Z,88.20
2018-02-16T06:09:57.832Z,88.30
2018-02-16T06:12:25.964Z,88.40
2018-02-16T06:14:54.073Z,88.40
2018-02-16T06:17:22.189Z,88.30
2018-02-16T06:19:50.361Z,88.30
2018-02-16T06:22:18.500Z,88.30
2018-02-16T06:24:46.737Z,88.30
2018-02-16T06:27:14.968Z,88.10
2018-02-16T06:29:43.149Z,87.90
2018-02-16T06:32:11.239Z,88.80
2018-02-16T06:34:39.347Z,88.00
2018-02-16T06:37:07.458Z,88.10
2018-02-16T06:39:35.573Z,88.20
2018-02-16T06:42:03.665Z,88.10
2018-02-16T06:44:31.753Z,88.00
2018-02-16T06:46:59.931Z,88.00
2018-02-16T06:49:28.036Z,87.80
2018-02-16T06:51:56.155Z,87.90
2018-02-16T06:54:24.267Z,87.90
2018-02-16T06:56:52.389Z,87.80
2018-02-16T06:59:20.508Z,87.90
2018-02-16T07:01:48.632Z,88.10
2018-02-16T07:04:16.748Z,88.30
2018-02-16T07:06:44.832Z,88.40
2018-02-16T07:09:13.187Z,88.40
2018-02-16T07:11:41.292Z,88.40
2018-02-16T07:14:10.210Z,88.50
2018-02-16T07:16:38.321Z,88.40
2018-02-16T07:19:06.422Z,88.40
2018-02-16T07:21:34.518Z,88.40
2018-02-16T07:24:02.668Z,88.50
2018-02-16T07:26:30.768Z,88.40
2018-02-16T07:28:58.888Z,88.40
2018-02-16T07:31:27.041Z,88.40
2018-02-16T07:33:55.144Z,88.50
2018-02-16T07:36:23.261Z,88.70
2018-02-16T07:38:51.382Z,88.70
2018-02-16T07:41:19.506Z,88.90
2018-02-16T07:43:47.611Z,88.70
2018-02-16T07:46:15.723Z,88.60
2018-02-16T07:48:44.583Z,88.40
2018-02-16T07:51:12.682Z,88.40
2018-02-16T07:53:41.655Z,88.40
2018-02-16T07:56:09.765Z,88.40
2018-02-16T07:58:37.883Z,88.30
2018-02-16T08:01:05.981Z,88.40
2018-02-16T08:03:34.092Z,88.50
2018-02-16T08:06:02.225Z,88.50
2018-02-16T08:08:30.328Z,88.50
2018-02-16T08:10:58.459Z,88.50
2018-02-16T08:13:26.547Z,88.40
2018-02-16T08:15:54.708Z,88.20
2018-02-16T08:18:22.792Z,88.20
2018-02-16T08:20:50.893Z,88.20
2018-02-16T08:23:18.992Z,88.20
2018-02-16T08:25:47.126Z,88.20
2018-02-16T08:28:15.204Z,88.10
2018-02-16T08:30:43.309Z,88.30
2018-02-16T08:33:11.393Z,88.30
2018-02-16T08:35:40.282Z,88.40
2018-02-16T08:38:08.378Z,88.40
2018-02-16T08:40:36.571Z,88.40
2018-02-16T08:43:05.538Z,88.40
2018-02-16T08:45:33.687Z,88.30
2018-02-16T08:48:01.787Z,88.40
2018-02-16T08:50:29.876Z,88.10
2018-02-16T08:52:57.988Z,88.20
2018-02-16T08:55:26.084Z,88.30
2018-02-16T08:57:54.179Z,88.50
2018-02-16T09:00:22.299Z,88.60
2018-02-16T09:02:50.425Z,88.70
2018-02-16T09:05:18.547Z,88.70
2018-02-16T09:07:46.657Z,88.70
2018-02-16T09:10:14.770Z,88.70
2018-02-16T09:12:42.871Z,88.70
2018-02-16T09:15:10.963Z,88.60
2018-02-16T09:17:39.085Z,88.70
2018-02-16T09:20:08.609Z,88.80
2018-02-16T09:22:36.703Z,88.80
2018-02-16T09:25:04.884Z,88.80
2018-02-16T09:27:33.053Z,88.80
2018-02-16T09:30:01.182Z,88.70
2018-02-16T09:32:29.265Z,88.50
2018-02-16T09:34:57.489Z,88.30
2018-02-16T09:37:26.684Z,88.40
2018-02-16T09:39:55.169Z,88.40
2018-02-16T09:42:24.039Z,88.10
2018-02-16T09:44:52.128Z,88.40
2018-02-16T09:47:20.248Z,88.60
2018-02-16T09:49:48.334Z,88.70
2018-02-16T09:52:16.448Z,88.90
2018-02-16T09:54:44.544Z,88.90
2018-02-16T09:57:12.628Z,88.90
2018-02-16T09:59:40.741Z,89.00
2018-02-16T10:02:08.838Z,89.10
2018-02-16T10:04:36.928Z,89.10
2018-02-16T10:07:05.019Z,89.10
2018-02-16T10:09:33.140Z,89.20
2018-02-16T10:12:01.495Z,89.10
2018-02-16T10:14:29.632Z,89.20
2018-02-16T10:16:57.777Z,89.10
2018-02-16T10:19:25.867Z,89.00
2018-02-16T10:21:53.977Z,88.70
2018-02-16T10:24:22.057Z,88.80
2018-02-16T10:26:50.157Z,88.90
2018-02-16T10:29:18.325Z,88.80
2018-02-16T10:31:46.509Z,89.00
2018-02-16T10:34:14.624Z,89.30
2018-02-16T10:36:42.735Z,89.20
2018-02-16T10:39:11.423Z,89.30
2018-02-16T10:41:40.306Z,89.20
2018-02-16T10:44:08.388Z,89.20
2018-02-16T10:46:36.497Z,89.40
2018-02-16T10:49:04.612Z,89.60
2018-02-16T10:51:32.728Z,89.40
2018-02-16T10:54:00.836Z,89.60
2018-02-16T10:56:28.947Z,89.20
2018-02-16T10:58:57.049Z,89.00
2018-02-16T11:01:25.162Z,88.80
2018-02-16T11:03:58.807Z,89.00
2018-02-16T11:06:32.456Z,89.00
2018-02-16T11:09:05.995Z,88.90
2018-02-16T11:11:34.077Z,89.00
2018-02-16T11:14:02.182Z,88.90
2018-02-16T11:16:30.294Z,88.80
2018-02-16T11:18:58.384Z,88.90
2018-02-16T11:21:26.516Z,88.70
2018-02-16T11:23:54.608Z,88.70
2018-02-16T11:26:22.735Z,89.00
2018-02-16T11:28:50.828Z,89.10
2018-02-16T11:31:18.949Z,88.90
2018-02-16T11:33:47.336Z,89.00
2018-02-16T11:36:15.443Z,89.10
2018-02-16T11:38:43.544Z,89.20
2018-02-16T11:41:11.864Z,89.20
2018-02-16T11:43:39.964Z,89.00
2018-02-16T11:46:08.072Z,89.00
2018-02-16T11:48:36.237Z,89.10
2018-02-16T11:51:04.329Z,88.90
2018-02-16T11:53:32.496Z,88.80
2018-02-16T11:56:00.978Z,89.00
2018-02-16T11:58:29.107Z,88.80
2018-02-16T12:00:57.235Z,88.80
2018-02-16T12:03:25.329Z,88.90
2018-02-16T12:05:53.809Z,89.00
2018-02-16T12:08:21.895Z,88.90
2018-02-16T12:10:50.493Z,89.00
2018-02-16T12:13:18.619Z,89.00
2018-02-16T12:15:46.809Z,89.00
2018-02-16T12:18:14.893Z,89.20
2018-02-16T12:20:43.058Z,89.20
2018-02-16T12:23:11.165Z,89.30
2018-02-16T12:25:39.255Z,89.30
2018-02-16T12:28:07.373Z,89.40
2018-02-16T12:30:35.470Z,89.40
2018-02-16T12:33:03.572Z,89.30
2018-02-16T12:35:31.971Z,89.30
2018-02-16T12:38:00.082Z,89.30
2018-02-16T12:40:28.970Z,89.80
2018-02-16T12:42:57.097Z,89.00
2018-02-16T12:45:25.199Z,89.20
2018-02-16T12:47:53.290Z,89.40
2018-02-16T12:50:21.396Z,89.50
2018-02-16T12:52:49.538Z,89.50
2018-02-16T12:55:17.846Z,89.40
2018-02-16T12:57:45.926Z,89.50
2018-02-16T13:00:14.077Z,89.30
2018-02-16T13:02:42.292Z,89.30
2018-02-16T13:05:10.458Z,89.20
2018-02-16T13:07:38.717Z,89.10
2018-02-16T13:10:06.816Z,89.20
2018-02-16T13:12:34.910Z,89.30
2018-02-16T13:15:03.009Z,89.60
2018-02-16T13:17:31.892Z,89.50
2018-02-16T13:20:00.740Z,89.50
2018-02-16T13:22:28.905Z,89.30
2018-02-16T13:24:56.973Z,89.40
2018-02-16T13:27:25.072Z,89.50
2018-02-16T13:29:53.176Z,89.50
2018-02-16T13:32:21.265Z,89.50
2018-02-16T13:34:49.387Z,89.60
2018-02-16T13:37:17.478Z,89.70
2018-02-16T13:39:45.603Z,89.80
2018-02-16T13:42:13.707Z,89.70
2018-02-16T13:44:41.804Z,89.80
2018-02-16T13:47:09.909Z,89.60
2018-02-16T13:49:38.122Z,89.30
2018-02-16T13:52:06.228Z,89.50
2018-02-16T13:54:34.319Z,89.60
2018-02-16T13:57:02.436Z,89.30
2018-02-16T13:59:30.556Z,89.30
2018-02-16T14:01:58.668Z,89.20
2018-02-16T14:04:26.766Z,89.20
2018-02-16T14:06:55.315Z,89.10
2018-02-16T14:09:23.430Z,89.20
2018-02-16T14:11:51.512Z,89.20
2018-02-16T14:14:19.623Z,89.00
2018-02-16T14:16:48.050Z,89.10
2018-02-16T14:19:16.163Z,89.00
2018-02-16T14:21:44.288Z,89.00
2018-02-16T14:24:12.518Z,88.90
2018-02-16T14:26:40.632Z,89.00
2018-02-16T14:29:08.757Z,89.10
2018-02-16T14:31:36.900Z,88.80
2018-02-16T14:34:04.988Z,88.80
2018-02-16T14:36:33.156Z,88.90
2018-02-16T14:39:01.250Z,89.00
2018-02-16T14:41:29.395Z,89.00
2018-02-16T14:43:58.259Z,89.20
2018-02-16T14:46:26.365Z,89.10
2018-02-16T14:48:55.236Z,89.20
2018-02-16T14:51:23.328Z,89.20
2018-02-16T14:53:51.439Z,89.20
2018-02-16T14:56:19.575Z,89.30
2018-02-16T14:58:47.754Z,89.30
2018-02-16T15:01:16.629Z,89.10
2018-02-16T15:03:44.733Z,89.60
2018-02-16T15:06:12.843Z,89.20
2018-02-16T15:08:40.953Z,89.20
2018-02-16T15:11:09.135Z,89.30
2018-02-16T15:13:37.242Z,89.30
2018-02-16T15:16:05.337Z,89.30
2018-02-16T15:18:33.426Z,89.50
2018-02-16T15:21:01.534Z,89.50
2018-02-16T15:23:29.634Z,89.50
2018-02-16T15:25:57.739Z,89.40
2018-02-16T15:28:25.872Z,89.50
2018-02-16T15:30:54.714Z,89.50
2018-02-16T15:33:22.816Z,89.50
2018-02-16T15:35:50.912Z,89.30
2018-02-16T15:38:19.010Z,89.20
2018-02-16T15:40:47.205Z,89.10
2018-02-16T15:43:16.096Z,89.30
2018-02-16T15:45:44.208Z,89.30
2018-02-16T15:48:12.310Z,89.20
2018-02-16T15:50:40.449Z,89.30
2018-02-16T15:53:08.514Z,89.00
2018-02-16T15:55:36.599Z,89.10
2018-02-16T15:58:04.709Z,89.00
2018-02-16T16:00:32.819Z,89.00
2018-02-16T16:03:00.946Z,89.00
2018-02-16T16:05:29.103Z,89.00
2018-02-16T16:07:57.209Z,89.10
2018-02-16T16:10:25.382Z,89.00
2018-02-16T16:12:53.472Z,89.00
2018-02-16T16:15:21.693Z,89.00
2018-02-16T16:17:49.820Z,88.90
2018-02-16T16:26:51.291Z,88.70
2018-02-16T16:29:19.563Z,88.40
2018-02-16T16:31:47.776Z,88.50
2018-02-16T16:34:16.006Z,88.50
2018-02-16T16:36:45.036Z,88.70
2018-02-16T16:39:13.900Z,88.60
2018-02-16T16:41:41.984Z,88.60
2018-02-16T16:44:10.105Z,88.50
2018-02-16T16:46:38.288Z,88.40
2018-02-16T16:49:06.427Z,88.40
2018-02-16T16:51:34.533Z,88.30
2018-02-16T16:54:02.640Z,88.20
2018-02-16T16:56:30.764Z,88.00
2018-02-16T16:58:58.878Z,88.00
2018-02-16T17:01:27.014Z,87.90
2018-02-16T17:03:55.168Z,88.00
2018-02-16T17:06:23.323Z,87.90
2018-02-16T17:08:51.456Z,88.00
2018-02-16T17:11:19.620Z,88.10
2018-02-16T17:13:48.109Z,88.20
2018-02-16T17:16:16.247Z,88.40
2018-02-16T17:18:48.621Z,88.30
2018-02-16T17:21:16.745Z,88.20
2018-02-16T17:23:44.945Z,88.10
2018-02-16T17:26:13.289Z,88.00
2018-02-16T17:28:41.474Z,87.90
2018-02-16T17:31:10.305Z,87.80
2018-02-16T17:33:38.559Z,87.80
2018-02-16T17:36:06.693Z,87.80
2018-02-16T17:38:34.853Z,87.80
2018-02-16T17:41:03.289Z,87.80
2018-02-16T17:43:31.665Z,87.60
2018-02-16T17:45:59.833Z,87.80
2018-02-16T17:48:28.043Z,87.60
2018-02-16T17:50:56.244Z,87.70
2018-02-16T17:53:24.369Z,87.70
2018-02-16T17:55:52.478Z,87.60
2018-02-16T17:58:21.149Z,87.60
2018-02-16T18:00:49.382Z,87.90
2018-02-16T18:03:17.529Z,87.80
2018-02-16T18:05:45.627Z,87.80
2018-02-16T18:08:13.794Z,87.60
2018-02-16T18:10:42.246Z,87.60
2018-02-16T18:13:10.431Z,87.70
2018-02-16T18:15:38.570Z,87.50
2018-02-16T18:18:06.669Z,87.50
2018-02-16T18:20:34.814Z,87.50
2018-02-16T18:23:02.954Z,87.40
2018-02-16T18:25:31.094Z,87.40
2018-02-16T18:27:59.238Z,87.30
2018-02-16T18:30:27.390Z,87.40
2018-02-16T18:32:55.523Z,87.60
2018-02-16T18:35:23.694Z,87.60
2018-02-16T18:37:51.863Z,87.50
2018-02-16T18:40:19.998Z,87.60
2018-02-16T18:42:48.133Z,87.70
2018-02-16T18:45:16.256Z,87.70
2018-02-16T18:47:44.386Z,88.50
2018-02-16T18:50:12.578Z,87.70
2018-02-16T18:52:41.462Z,87.40
2018-02-16T18:55:09.609Z,87.30
2018-02-16T18:57:37.733Z,87.40
2018-02-16T19:00:10.167Z,87.50
2018-02-16T19:02:38.309Z,86.80
2018-02-16T19:05:06.481Z,87.40
2018-02-16T19:07:34.629Z,87.50
2018-02-16T19:10:02.767Z,88.40
2018-02-16T19:12:30.873Z,87.60
2018-02-16T19:14:59.009Z,87.50
2018-02-16T19:17:28.085Z,87.40
2018-02-16T19:19:56.321Z,87.40
2018-02-16T19:22:24.697Z,87.20
2018-02-16T19:24:52.904Z,87.10
2018-02-16T19:27:25.580Z,87.00
2018-02-16T19:29:53.710Z,86.80
2018-02-16T19:32:21.836Z,86.60
2018-02-16T19:34:49.947Z,86.60
2018-02-16T19:37:19.814Z,86.70
2018-02-16T19:39:48.492Z,86.80
2018-02-16T19:42:16.619Z,86.70
2018-02-16T19:44:45.532Z,87.00
2018-02-16T19:47:14.225Z,86.80
2018-02-16T19:49:42.732Z,86.90
2018-02-16T19:52:11.895Z,86.90
2018-02-16T19:54:40.669Z,86.90
2018-02-16T19:57:08.865Z,87.00
2018-02-16T19:59:36.995Z,87.10
2018-02-16T20:02:05.333Z,87.20
2018-02-16T20:04:33.526Z,87.40
2018-02-16T20:07:01.813Z,87.50
2018-02-16T20:09:30.048Z,87.50
2018-02-16T20:12:06.555Z,87.60
2018-02-16T20:14:34.812Z,87.70
2018-02-16T20:17:03.121Z,87.80
2018-02-16T20:19:31.348Z,87.80
2018-02-16T20:21:59.497Z,87.80
2018-02-16T20:24:27.657Z,87.60
2018-02-16T20:26:55.796Z,87.50
2018-02-16T20:29:23.948Z,87.60
2018-02-16T20:31:52.071Z,87.40
2018-02-16T20:34:21.051Z,87.50
2018-02-16T20:36:49.653Z,87.30
2018-02-16T20:39:19.548Z,87.20
2018-02-16T20:41:47.731Z,87.20
2018-02-16T20:44:16.573Z,87.00
2018-02-16T20:46:44.695Z,87.00
2018-02-16T20:49:12.847Z,87.00
2018-02-16T20:51:41.026Z,86.90
2018-02-16T20:54:10.494Z,86.90
2018-02-16T20:56:38.648Z,87.00
2018-02-16T20:59:06.820Z,86.90
2018-02-16T21:01:35.247Z,86.80
2018-02-16T21:04:03.938Z,86.80
2018-02-16T21:06:32.050Z,86.90
2018-02-16T21:09:00.224Z,86.80
2018-02-16T21:11:28.367Z,86.80
2018-02-16T21:13:56.514Z,86.90
2018-02-16T21:16:26.430Z,86.90
2018-02-16T21:18:54.644Z,86.90
2018-02-16T21:21:23.682Z,86.90
2018-02-16T21:23:56.868Z,86.90
2018-02-16T21:26:37.293Z,87.00
2018-02-16T21:29:05.438Z,87.00
2018-02-16T21:31:34.142Z,87.00
2018-02-16T21:34:02.293Z,87.10
2018-02-16T21:36:30.447Z,87.10
2018-02-16T21:38:58.576Z,87.00
2018-02-16T21:41:31.549Z,86.90
2018-02-16T21:44:03.595Z,87.10
2018-02-16T21:46:32.415Z,87.10
2018-02-16T21:49:04.872Z,87.10
2018-02-16T21:51:33.012Z,87.20
2018-02-16T21:54:01.289Z,87.20
2018-02-16T21:56:29.412Z,87.30
2018-02-16T21:58:57.553Z,87.30
2018-02-16T22:14:16.240Z,87.30
2018-02-16T22:16:48.304Z,87.80
2018-02-16T22:19:17.208Z,88.10
2018-02-16T22:21:46.138Z,88.00
2018-02-16T22:24:14.258Z,88.00
2018-02-16T22:26:42.384Z,88.00
2018-02-16T22:29:10.606Z,88.00
2018-02-16T22:31:38.864Z,88.10
2018-02-16T22:34:07.107Z,88.00
2018-02-16T22:36:35.228Z,88.00
2018-02-16T22:39:03.350Z,87.90
2018-02-16T22:41:31.503Z,88.00
2018-02-16T22:43:59.640Z,87.90
2018-02-16T22:46:27.856Z,87.90
2018-02-16T22:48:56.035Z,87.90
2018-02-16T22:51:24.167Z,87.80
2018-02-16T22:53:53.868Z,87.90
2018-02-16T22:56:27.892Z,87.90
2018-02-16T22:58:56.049Z,87.80
2018-02-16T23:01:24.173Z,87.90
2018-02-16T23:03:52.369Z,87.80
2018-02-16T23:06:20.579Z,87.80
2018-02-16T23:08:48.767Z,87.80
2018-02-16T23:11:16.924Z,87.80
2018-02-16T23:13:45.106Z,87.80
2018-02-16T23:29:15.205Z,87.90
2018-02-16T23:34:28.709Z,87.90
2018-02-16T23:36:56.978Z,87.80
2018-02-16T23:39:25.220Z,87.80
2018-02-16T23:41:57.323Z,87.80
2018-02-16T23:44:25.560Z,87.70
2018-02-16T23:46:53.785Z,87.60
2018-02-16T23:49:22.068Z,87.60
2018-02-16T23:51:50.272Z,87.60
2018-02-16T23:54:18.549Z,87.60
2018-02-16T23:56:46.783Z,87.50
2018-02-16T23:59:14.983Z,87.60
